Kursk, Russia
Current Conditions -  °F | °C
As of 12:00 PM on Thursday 23 Oct 2014 (Local Time) from UUOK Reporting Station
Clear Clear  
Wind Chill: 20°   Ceiling: Unl
Heat Index: 28°   Visibility: 6mi
Dew Point: 12°   Wind: 9mph
Humidity: 51%   Direction: 50°NE
Pressure: 30.27"   Gusts: NA
Location:  51.73°N, 36.19°E
Report Text: UUOK 230900Z 05004MPS CAVOK M02/M11 Q1025 NOSIG RMK 30CLRD70
Loading
Personal Weather Stations






























Interactive Weather Map
Tropical Storm Tracking
New forecast layout! Learn more

10-Day Weather Forecast

Advertisements
Track Severe Weather on mobile